Azure — ZCEE2 — position and weather

sailwx.info

Track history (hours):
 
Tides and Currents Weather Stations Pressure Air Temp Water Temp Dewpoint Dewpoint Depression Visibility Wind Speed Wind Dir Waves Ship Positions

Azure

Last reported at 2016-Feb-09 06:33 UTC. Time now 2016-Feb-10 17:37 UTC.
Position N 16°43' W 062°36'.

Length 289 m; draft 8.6 m.

Type: Passenger vessel. MMSI: 310610000.

Date/timePositionNaut miles runAvg speedWind from/ knotsBaromVisibWave heightAir tempDewpointWater temp
2016-Feb-09 06:33N 16°43' W 062°36'8 8.1
2016-Feb-09 05:33N 16°36' W 062°31'6 6.2
2016-Feb-09 04:33N 16°39' W 062°25'8 8.1
2016-Feb-09 03:33N 16°46' W 062°21'7 7.3
2016-Feb-09 02:33N 16°52' W 062°17'8 7.7
2016-Feb-09 01:33N 16°58' W 062°12'7 7.5
2016-Feb-09 00:33N 17°04' W 062°08'7 7.4
2016-Feb-08 23:33N 17°10' W 062°03'7 7.2
2016-Feb-08 22:33N 17°09' W 061°55'4 4.2
2016-Feb-08 21:31N 17°07' W 061°51'0 0.0
2016-Feb-08 20:31N 17°07' W 061°51'0 0.0
2016-Feb-08 19:31N 17°07' W 061°51'0 0.0
2016-Feb-08 18:34N 17°07' W 061°51'0 0.0
2016-Feb-08 17:31N 17°07' W 061°51'0 0.0
2016-Feb-08 16:31N 17°07' W 061°51'0 0.0
2016-Feb-08 15:34N 17°07' W 061°51'0 0.2
2016-Feb-08 15:09N 17°07' W 061°51'0 0.1
2016-Feb-08 14:34N 17°07' W 061°51'0 0.0
2016-Feb-08 13:34N 17°07' W 061°51'0 0.0
2016-Feb-08 12:31N 17°07' W 061°51'0 0.0
2016-Feb-08 11:34N 17°07' W 061°51'3 3.4
2016-Feb-08 10:33N 17°09' W 061°54'8 8.5
2016-Feb-08 09:33N 17°12' W 062°02'8 8.0
2016-Feb-08 08:33N 17°06' W 062°08'9 9.4
2016-Feb-08 07:34N 16°57' W 062°06'9 9.5
2016-Feb-08 06:34N 16°48' W 062°04'10 9.9
2016-Feb-08 05:34N 16°38' W 062°03'10 9.8
2016-Feb-08 04:34N 16°28' W 062°03'1010.1
2016-Feb-08 03:33N 16°18' W 062°03'5610.0
2016-Feb-07 22:00N 15°24' W 061°48'67 9.5 100 / 151017.510.8 0.526.522.0
2016-Feb-07 15:00N 14°24' W 061°18'   100 / 251016.410.8 1.027.023.6
2016-Feb-03 06:23N 16°12' W 062°02'7 8.9
2016-Feb-03 05:33N 16°19' W 062°02'9 8.7
2016-Feb-03 04:33N 16°28' W 062°02'9 8.6
2016-Feb-03 03:34N 16°36' W 062°03'8 8.5
2016-Feb-03 02:34N 16°45' W 062°03'8 8.5
2016-Feb-03 01:33N 16°53' W 062°04'9 8.4
2016-Feb-03 00:31N 17°02' W 062°04'8 8.1
2016-Feb-02 23:33N 17°10' W 062°03'8 7.9
2016-Feb-02 22:33N 17°09' W 061°55'4 4.1
2016-Feb-02 21:33N 17°07' W 061°51'0 0.0
2016-Feb-02 20:33N 17°07' W 061°51'0 0.0
2016-Feb-02 19:33N 17°07' W 061°51'0 0.0
2016-Feb-02 18:33N 17°07' W 061°51'0 0.0
2016-Feb-02 17:33N 17°07' W 061°51'0 0.0
2016-Feb-02 16:33N 17°07' W 061°51'0 0.0
2016-Feb-02 15:33N 17°07' W 061°51'0 0.0
2016-Feb-02 14:33N 17°07' W 061°51'0 0.0
2016-Feb-02 13:33N 17°07' W 061°51'0 0.0
2016-Feb-02 12:33N 17°07' W 061°51'2 2.3
2016-Feb-02 11:34N 17°08' W 061°53'8 8.3
2016-Feb-02 10:33N 17°12' W 062°01'9 8.9
2016-Feb-02 09:33N 17°17' W 062°09'1010.3
2016-Feb-02 08:33N 17°24' W 062°16'1110.8
2016-Feb-02 07:34N 17°31' W 062°25'131 4.1
2016-Jan-31 23:33N 18°21' W 064°32'5 0.4
2016-Jan-31 11:10N 18°25' W 064°36'5 7.5
2016-Jan-31 10:33N 18°24' W 064°32'8 7.6
2016-Jan-31 09:33N 18°32' W 064°32'9 9.2
2016-Jan-31 08:33N 18°40' W 064°37'9 9.5
2016-Jan-31 07:33N 18°48' W 064°43'  
Track history (hours):
 
Tides and Currents Weather Stations Pressure Air Temp Water Temp Dewpoint Dewpoint Depression Visibility Wind Speed Wind Dir Waves Ship Positions

Azure

Last reported at 2016-Feb-09 06:33 UTC. Time now 2016-Feb-10 17:38 UTC.
Position N 16°43' W 062°36'.

Length 289 m; draft 8.6 m.

Type: Passenger vessel. MMSI: 310610000.

Date/timePositionNaut miles runAvg speedWind from/ knotsBaromVisibWave heightAir tempDewpointWater temp
2016-Feb-09 06:33N 16°43' W 062°36'8 8.1
2016-Feb-09 05:33N 16°36' W 062°31'6 6.2
2016-Feb-09 04:33N 16°39' W 062°25'8 8.1
2016-Feb-09 03:33N 16°46' W 062°21'7 7.3
2016-Feb-09 02:33N 16°52' W 062°17'8 7.7
2016-Feb-09 01:33N 16°58' W 062°12'7 7.5
2016-Feb-09 00:33N 17°04' W 062°08'7 7.4
2016-Feb-08 23:33N 17°10' W 062°03'7 7.2
2016-Feb-08 22:33N 17°09' W 061°55'4 4.2
2016-Feb-08 21:31N 17°07' W 061°51'0 0.0
2016-Feb-08 20:31N 17°07' W 061°51'0 0.0
2016-Feb-08 19:31N 17°07' W 061°51'0 0.0
2016-Feb-08 18:34N 17°07' W 061°51'0 0.0
2016-Feb-08 17:31N 17°07' W 061°51'0 0.0
2016-Feb-08 16:31N 17°07' W 061°51'0 0.0
2016-Feb-08 15:34N 17°07' W 061°51'0 0.2
2016-Feb-08 15:09N 17°07' W 061°51'0 0.1
2016-Feb-08 14:34N 17°07' W 061°51'0 0.0
2016-Feb-08 13:34N 17°07' W 061°51'0 0.0
2016-Feb-08 12:31N 17°07' W 061°51'0 0.0
2016-Feb-08 11:34N 17°07' W 061°51'3 3.4
2016-Feb-08 10:33N 17°09' W 061°54'8 8.5
2016-Feb-08 09:33N 17°12' W 062°02'8 8.0
2016-Feb-08 08:33N 17°06' W 062°08'9 9.4
2016-Feb-08 07:34N 16°57' W 062°06'9 9.5
2016-Feb-08 06:34N 16°48' W 062°04'10 9.9
2016-Feb-08 05:34N 16°38' W 062°03'10 9.8
2016-Feb-08 04:34N 16°28' W 062°03'1010.1
2016-Feb-08 03:33N 16°18' W 062°03'5610.0
2016-Feb-07 22:00N 15°24' W 061°48'67 9.5 100 / 151017.510.8 0.526.522.0
2016-Feb-07 15:00N 14°24' W 061°18'   100 / 251016.410.8 1.027.023.6
2016-Feb-03 06:23N 16°12' W 062°02'7 8.9
2016-Feb-03 05:33N 16°19' W 062°02'9 8.7
2016-Feb-03 04:33N 16°28' W 062°02'9 8.6
2016-Feb-03 03:34N 16°36' W 062°03'8 8.5
2016-Feb-03 02:34N 16°45' W 062°03'8 8.5
2016-Feb-03 01:33N 16°53' W 062°04'9 8.4
2016-Feb-03 00:31N 17°02' W 062°04'8 8.1
2016-Feb-02 23:33N 17°10' W 062°03'8 7.9
2016-Feb-02 22:33N 17°09' W 061°55'4 4.1
2016-Feb-02 21:33N 17°07' W 061°51'0 0.0
2016-Feb-02 20:33N 17°07' W 061°51'0 0.0
2016-Feb-02 19:33N 17°07' W 061°51'0 0.0
2016-Feb-02 18:33N 17°07' W 061°51'0 0.0
2016-Feb-02 17:33N 17°07' W 061°51'0 0.0
2016-Feb-02 16:33N 17°07' W 061°51'0 0.0
2016-Feb-02 15:33N 17°07' W 061°51'0 0.0
2016-Feb-02 14:33N 17°07' W 061°51'0 0.0
2016-Feb-02 13:33N 17°07' W 061°51'0 0.0
2016-Feb-02 12:33N 17°07' W 061°51'2 2.3
2016-Feb-02 11:34N 17°08' W 061°53'8 8.3
2016-Feb-02 10:33N 17°12' W 062°01'9 8.9
2016-Feb-02 09:33N 17°17' W 062°09'1010.3
2016-Feb-02 08:33N 17°24' W 062°16'1110.8
2016-Feb-02 07:34N 17°31' W 062°25'131 4.1
2016-Jan-31 23:33N 18°21' W 064°32'5 0.4
2016-Jan-31 11:10N 18°25' W 064°36'5 7.5
2016-Jan-31 10:33N 18°24' W 064°32'8 7.6
2016-Jan-31 09:33N 18°32' W 064°32'9 9.2
2016-Jan-31 08:33N 18°40' W 064°37'9 9.5
2016-Jan-31 07:33N 18°48' W 064°43'  

Dump ship's entire track history